Time;durP1;ratioP1;P1;durP2;ratioP2;P2;SDS_P1;SDS_P2;PMS_P1;PMS_P2;Temp;Humidity;BMP_temperature;BMP_pressure;BME280_temperature;BME280_humidity;BME280_pressure;Samples;Min_cycle;Max_cycle;Signal;HPM_P1;HPM_P2
2022/12/31 00:01:10;;;;;;;10.80;6.60;;;6.80;99.90;;;;;;5102193;28;20042;-69
2022/12/31 00:03:37;;;;;;;10.02;6.43;;;6.80;99.90;;;;;;5090953;28;20027;-69
2022/12/31 00:06:13;;;;;;;11.68;6.88;;;6.70;99.90;;;;;;5091142;28;20020;-69
2022/12/31 00:08:39;;;;;;;9.70;5.35;;;6.70;99.90;;;;;;5094369;28;20054;-69
2022/12/31 00:11:04;;;;;;;11.43;6.30;;;6.80;99.90;;;;;;5094680;28;20032;-70
2022/12/31 00:13:30;;;;;;;8.23;5.53;;;6.80;99.90;;;;;;5114080;28;20454;-69
2022/12/31 00:16:08;;;;;;;10.10;5.93;;;6.70;99.90;;;;;;5112663;28;20023;-69
2022/12/31 00:18:34;;;;;;;12.45;5.75;;;6.60;99.90;;;;;;5115902;28;20027;-69
2022/12/31 00:21:04;;;;;;;11.30;6.03;;;6.70;99.90;;;;;;5115848;28;20522;-69
2022/12/31 00:23:29;;;;;;;11.15;5.22;;;6.90;99.90;;;;;;5114718;28;20042;-70
2022/12/31 00:25:55;;;;;;;12.48;6.32;;;6.80;99.90;;;;;;5114748;28;20397;-69
2022/12/31 00:28:21;;;;;;;11.30;5.75;;;6.70;99.90;;;;;;5115044;28;20035;-69
2022/12/31 00:30:46;;;;;;;7.63;4.38;;;6.70;99.90;;;;;;5113760;27;20028;-69
2022/12/31 00:33:12;;;;;;;9.15;5.20;;;6.80;99.90;;;;;;5114646;27;20069;-69
2022/12/31 00:35:37;;;;;;;13.20;5.07;;;7.00;99.90;;;;;;5114370;28;20031;-69
2022/12/31 00:38:03;;;;;;;10.90;5.63;;;7.00;99.90;;;;;;5114627;28;20020;-69
2022/12/31 00:40:29;;;;;;;12.30;6.78;;;6.90;99.90;;;;;;5114077;28;20403;-69
2022/12/31 00:42:54;;;;;;;9.90;5.65;;;6.70;99.90;;;;;;5114456;28;20067;-69
2022/12/31 00:45:20;;;;;;;11.57;6.15;;;6.70;99.90;;;;;;5114117;28;20015;-69
2022/12/31 00:47:46;;;;;;;11.18;6.05;;;6.70;99.90;;;;;;5111744;28;20027;-69
2022/12/31 00:50:11;;;;;;;11.48;6.80;;;6.70;99.90;;;;;;5114515;28;20019;-69
2022/12/31 00:52:37;;;;;;;15.32;7.40;;;6.70;99.90;;;;;;5123152;27;20038;-69
2022/12/31 00:55:03;;;;;;;13.88;8.23;;;6.50;99.90;;;;;;5121081;27;20023;-69
2022/12/31 00:57:28;;;;;;;16.48;9.65;;;6.40;99.90;;;;;;5113681;28;20473;-69
2022/12/31 00:59:54;;;;;;;16.95;8.13;;;6.30;99.90;;;;;;5113228;28;20380;-69
2022/12/31 01:02:20;;;;;;;17.48;8.40;;;6.10;99.90;;;;;;5113972;28;20456;-69
2022/12/31 01:04:45;;;;;;;10.20;6.00;;;6.10;99.90;;;;;;5113305;28;20115;-69
2022/12/31 01:07:11;;;;;;;9.38;4.95;;;6.20;99.90;;;;;;5116405;27;20051;-69
2022/12/31 01:09:36;;;;;;;12.32;5.13;;;6.60;99.90;;;;;;5116736;27;20075;-69
2022/12/31 01:12:02;;;;;;;9.05;4.93;;;6.80;99.90;;;;;;5113789;28;20027;-69
2022/12/31 01:14:28;;;;;;;11.35;5.60;;;6.90;99.90;;;;;;5113071;28;20019;-69
2022/12/31 01:16:53;;;;;;;12.63;5.60;;;7.00;99.90;;;;;;5112316;28;20476;-69
2022/12/31 01:19:26;;;;;;;10.18;5.55;;;6.90;99.90;;;;;;5113906;28;20473;-69
2022/12/31 01:21:52;;;;;;;8.00;4.55;;;6.90;99.90;;;;;;5110762;27;20035;-69
2022/12/31 01:24:18;;;;;;;9.18;4.85;;;6.80;99.90;;;;;;5113529;28;20038;-69
2022/12/31 01:26:45;;;;;;;9.85;4.90;;;6.90;99.90;;;;;;5113321;28;20544;-69
2022/12/31 01:29:12;;;;;;;7.70;4.85;;;7.00;99.90;;;;;;5113717;27;20026;-69
2022/12/31 01:31:38;;;;;;;8.45;4.72;;;6.90;99.90;;;;;;5112236;28;20122;-69
2022/12/31 01:34:05;;;;;;;5.93;3.90;;;6.80;99.90;;;;;;5110641;27;20027;-69
2022/12/31 01:36:32;;;;;;;8.48;4.40;;;6.80;99.90;;;;;;5114435;27;20031;-69
2022/12/31 01:38:59;;;;;;;8.38;5.10;;;6.70;99.90;;;;;;5112596;28;20031;-69
2022/12/31 01:41:35;;;;;;;7.97;4.40;;;6.60;99.90;;;;;;5107151;28;20042;-69
2022/12/31 01:44:21;;;;;;;7.78;4.25;;;6.70;99.90;;;;;;5108182;28;20429;-69
2022/12/31 01:46:59;;;;;;;12.18;6.97;;;6.60;99.90;;;;;;5079226;28;20382;-69
2022/12/31 01:49:33;;;;;;;15.82;6.90;;;6.50;99.90;;;;;;5093688;28;20036;-69
2022/12/31 01:52:17;;;;;;;13.30;5.88;;;6.40;99.90;;;;;;5092962;28;20036;-69
2022/12/31 01:54:49;;;;;;;10.63;4.95;;;6.20;99.90;;;;;;5093533;28;20036;-69
2022/12/31 01:57:16;;;;;;;8.20;5.25;;;6.30;99.90;;;;;;5092945;28;20039;-69
2022/12/31 01:59:43;;;;;;;8.85;4.88;;;6.30;99.90;;;;;;5092805;28;20024;-69
2022/12/31 02:02:10;;;;;;;9.23;5.28;;;6.60;99.90;;;;;;5092958;28;20039;-69
2022/12/31 02:04:35;;;;;;;11.65;6.30;;;6.90;99.90;;;;;;5096099;28;20032;-69
2022/12/31 02:07:05;;;;;;;12.52;6.65;;;7.00;99.90;;;;;;5093497;28;20385;-69
2022/12/31 02:09:32;;;;;;;11.20;5.32;;;6.70;99.90;;;;;;5092924;28;20042;-69
2022/12/31 02:11:58;;;;;;;10.35;4.90;;;6.70;99.90;;;;;;5093283;28;20393;-69
2022/12/31 02:14:39;;;;;;;9.02;5.07;;;6.70;99.90;;;;;;5095859;28;20119;-69
2022/12/31 02:17:27;;;;;;;10.30;5.93;;;6.60;99.90;;;;;;5093350;28;20470;-69
2022/12/31 02:20:08;;;;;;;11.10;5.82;;;6.50;99.90;;;;;;5092316;28;20537;-69
2022/12/31 02:23:11;;;;;;;12.48;7.22;;;6.50;99.90;;;;;;5095851;28;20075;-70
2022/12/31 02:25:51;;;;;;;9.00;4.82;;;6.40;99.90;;;;;;5092315;28;20028;-69
2022/12/31 02:28:17;;;;;;;8.57;4.78;;;6.50;99.90;;;;;;5092325;28;20123;-69
2022/12/31 02:30:53;;;;;;;10.52;5.25;;;6.40;99.90;;;;;;5092939;28;20103;-69
2022/12/31 02:33:53;;;;;;;7.57;5.10;;;6.40;99.90;;;;;;5092417;28;20592;-69
2022/12/31 02:36:27;;;;;;;13.18;5.90;;;6.40;99.90;;;;;;5069847;28;20448;-69
2022/12/31 02:38:54;;;;;;;9.13;5.03;;;6.50;99.90;;;;;;5093119;28;20020;-69
2022/12/31 02:44:30;;;;;;;9.82;5.50;;;6.60;99.90;;;;;;5093384;28;20070;-69
2022/12/31 02:47:04;;;;;;;8.90;4.90;;;6.70;99.90;;;;;;5092246;28;20485;-69
2022/12/31 02:49:49;;;;;;;11.75;5.65;;;6.60;99.90;;;;;;5092298;28;20474;-69
2022/12/31 02:52:31;;;;;;;10.77;5.82;;;6.50;99.90;;;;;;5095328;28;20052;-69
2022/12/31 02:55:17;;;;;;;10.70;4.35;;;6.50;99.90;;;;;;5093156;28;20039;-69
2022/12/31 02:57:59;;;;;;;8.07;4.32;;;6.50;99.90;;;;;;5092158;28;20507;-69
2022/12/31 03:03:11;;;;;;;9.43;5.32;;;6.60;99.90;;;;;;5096280;28;20078;-70
2022/12/31 03:05:40;;;;;;;10.13;5.03;;;6.50;99.90;;;;;;5092958;28;20055;-69
2022/12/31 03:08:06;;;;;;;9.65;4.65;;;6.40;99.90;;;;;;5091968;28;20374;-69
2022/12/31 03:10:33;;;;;;;7.88;4.90;;;6.50;99.90;;;;;;5093090;28;20016;-69
2022/12/31 03:12:59;;;;;;;9.40;5.43;;;6.40;99.90;;;;;;5096276;28;20024;-69
2022/12/31 03:15:27;;;;;;;8.95;5.47;;;6.20;99.90;;;;;;5096702;28;20063;-69
2022/12/31 03:18:03;;;;;;;10.48;5.88;;;6.30;99.90;;;;;;5096757;28;20032;-69
2022/12/31 03:23:28;;;;;;;16.23;6.70;;;6.30;99.90;;;;;;5096496;28;20505;-69
2022/12/31 03:25:55;;;;;;;11.48;6.30;;;6.40;99.90;;;;;;5096391;28;20036;-69
2022/12/31 03:28:23;;;;;;;14.68;6.50;;;6.40;99.90;;;;;;5095689;28;20035;-69
2022/12/31 03:30:52;;;;;;;10.82;5.63;;;6.40;99.90;;;;;;5096650;28;20028;-69
2022/12/31 03:33:18;;;;;;;10.68;5.72;;;6.50;99.90;;;;;;5095360;28;20016;-69
2022/12/31 03:35:46;;;;;;;8.68;4.43;;;6.50;99.90;;;;;;5095384;28;20028;-69
2022/12/31 03:38:12;;;;;;;9.40;4.60;;;6.50;99.90;;;;;;5095608;28;20032;-69
2022/12/31 03:40:41;;;;;;;10.55;5.25;;;6.50;99.90;;;;;;5096035;28;20047;-69
2022/12/31 03:43:07;;;;;;;8.48;5.10;;;6.50;99.90;;;;;;5095370;28;20081;-69
2022/12/31 03:45:33;;;;;;;9.70;4.90;;;6.40;99.90;;;;;;5095269;28;20036;-69
2022/12/31 03:48:00;;;;;;;10.70;5.53;;;6.40;99.90;;;;;;5094621;28;20089;-69
2022/12/31 03:50:26;;;;;;;8.38;5.05;;;6.50;99.90;;;;;;5095087;28;20070;-69
2022/12/31 03:52:52;;;;;;;11.75;5.63;;;6.40;99.90;;;;;;5096127;28;20040;-69
2022/12/31 03:55:18;;;;;;;10.02;4.82;;;6.30;99.90;;;;;;5095203;28;20123;-69
2022/12/31 03:57:43;;;;;;;9.20;4.57;;;6.30;99.90;;;;;;5095941;28;20024;-69
2022/12/31 04:00:13;;;;;;;7.75;4.45;;;6.30;99.90;;;;;;5095121;28;20062;-69
2022/12/31 04:02:39;;;;;;;7.70;5.10;;;6.30;99.90;;;;;;5094610;28;20031;-69
2022/12/31 04:05:05;;;;;;;6.05;4.20;;;6.50;99.90;;;;;;5089580;28;20028;-69
2022/12/31 04:07:31;;;;;;;7.22;4.18;;;6.60;99.90;;;;;;5090739;28;20024;-69
2022/12/31 04:09:57;;;;;;;8.57;4.82;;;6.50;99.90;;;;;;5090127;28;20097;-69
2022/12/31 04:12:23;;;;;;;8.07;5.00;;;6.60;99.90;;;;;;5091498;28;20035;-69
2022/12/31 04:14:50;;;;;;;9.30;5.18;;;6.50;99.90;;;;;;5110491;27;20520;-69
2022/12/31 04:17:15;;;;;;;9.75;5.25;;;6.40;99.90;;;;;;5103679;28;20683;-69
2022/12/31 04:19:41;;;;;;;9.18;4.93;;;6.50;99.90;;;;;;5088213;28;20058;-69
2022/12/31 04:22:07;;;;;;;6.63;4.07;;;6.30;99.90;;;;;;5087382;28;20093;-69
2022/12/31 04:24:32;;;;;;;9.50;5.88;;;6.20;99.90;;;;;;5087336;28;20040;-69
2022/12/31 04:26:59;;;;;;;11.57;5.80;;;6.20;99.90;;;;;;5086961;28;20044;-69
2022/12/31 04:29:24;;;;;;;8.95;5.40;;;6.10;99.90;;;;;;5087553;28;20024;-69
2022/12/31 04:31:50;;;;;;;10.52;5.20;;;6.10;99.90;;;;;;5086931;28;20028;-69
2022/12/31 04:34:16;;;;;;;7.78;4.45;;;6.20;99.90;;;;;;5090675;28;20475;-69
2022/12/31 04:36:41;;;;;;;8.25;4.60;;;6.00;99.90;;;;;;5090129;28;20381;-69
2022/12/31 04:39:08;;;;;;;8.85;4.68;;;5.90;99.90;;;;;;5090891;28;20035;-69
2022/12/31 04:41:33;;;;;;;8.88;4.32;;;5.90;99.90;;;;;;5090075;28;20053;-69
2022/12/31 04:43:59;;;;;;;7.28;4.35;;;5.90;99.90;;;;;;5089319;28;20032;-69
2022/12/31 04:46:27;;;;;;;11.57;5.63;;;6.00;99.90;;;;;;5090607;28;20028;-69
2022/12/31 04:48:53;;;;;;;9.63;4.80;;;6.00;99.90;;;;;;5089555;28;20028;-69
2022/12/31 04:51:20;;;;;;;8.40;5.32;;;5.90;99.90;;;;;;5090460;28;20028;-69
2022/12/31 04:53:46;;;;;;;8.95;4.95;;;5.80;99.90;;;;;;5089892;28;20462;-69
2022/12/31 04:56:12;;;;;;;9.10;5.35;;;5.80;99.90;;;;;;5090274;28;20042;-69
2022/12/31 04:58:38;;;;;;;7.88;4.50;;;5.80;99.90;;;;;;5089503;28;20030;-69
2022/12/31 05:01:05;;;;;;;12.15;4.72;;;5.70;99.90;;;;;;5090541;28;20519;-69
2022/12/31 05:03:31;;;;;;;9.90;4.88;;;5.70;99.90;;;;;;5089259;28;20044;-69
2022/12/31 05:06:02;;;;;;;7.78;4.47;;;5.60;99.90;;;;;;5090168;28;20039;-69
2022/12/31 05:08:28;;;;;;;7.13;3.80;;;5.50;99.90;;;;;;5089440;28;20028;-69
2022/12/31 05:10:54;;;;;;;9.30;5.10;;;5.60;99.90;;;;;;5090114;28;20082;-69
2022/12/31 05:13:21;;;;;;;7.68;4.22;;;5.80;99.90;;;;;;5089222;28;20035;-69
2022/12/31 05:15:47;;;;;;;9.77;4.53;;;5.90;99.90;;;;;;5092860;28;20055;-69
2022/12/31 05:18:13;;;;;;;7.72;4.78;;;5.80;99.90;;;;;;5089191;28;20090;-69
2022/12/31 05:20:39;;;;;;;9.82;4.65;;;5.70;99.90;;;;;;5090146;28;20065;-69
2022/12/31 05:23:04;;;;;;;7.55;4.13;;;5.70;99.90;;;;;;5089026;28;20500;-69
2022/12/31 05:25:30;;;;;;;9.23;4.45;;;5.70;99.90;;;;;;5089778;28;20033;-69
2022/12/31 05:27:56;;;;;;;11.43;4.32;;;5.70;99.90;;;;;;5088829;28;20040;-69
2022/12/31 05:30:22;;;;;;;8.98;5.13;;;5.70;99.90;;;;;;5089651;28;20466;-69
2022/12/31 05:32:47;;;;;;;6.88;4.05;;;5.80;99.90;;;;;;5088703;28;20111;-69
2022/12/31 05:35:13;;;;;;;5.97;3.65;;;5.70;99.90;;;;;;5089426;28;20028;-69
2022/12/31 05:37:39;;;;;;;7.10;4.55;;;5.70;99.90;;;;;;5088816;28;20133;-69
2022/12/31 05:40:06;;;;;;;17.60;11.38;;;5.70;99.90;;;;;;5088767;28;20060;-69
2022/12/31 05:42:32;;;;;;;11.25;5.88;;;5.50;99.90;;;;;;5089002;28;20624;-69
2022/12/31 05:44:57;;;;;;;8.93;5.50;;;5.50;99.90;;;;;;5088681;28;20077;-69
2022/12/31 05:47:23;;;;;;;7.82;5.00;;;5.60;99.90;;;;;;5089048;28;20020;-69
2022/12/31 05:49:49;;;;;;;6.15;3.65;;;5.40;99.90;;;;;;5088607;28;20039;-69
2022/12/31 05:52:15;;;;;;;9.85;4.57;;;5.40;99.90;;;;;;5089299;28;20024;-69
2022/12/31 05:54:41;;;;;;;7.55;4.03;;;5.40;99.90;;;;;;5088454;28;20035;-69
2022/12/31 05:57:06;;;;;;;7.75;4.68;;;5.40;99.90;;;;;;5088002;28;20597;-69
2022/12/31 05:59:32;;;;;;;8.60;5.40;;;5.40;99.90;;;;;;5089558;28;20038;-69
2022/12/31 06:01:58;;;;;;;9.68;5.25;;;5.50;99.90;;;;;;5088140;28;20024;-69
2022/12/31 06:04:24;;;;;;;7.30;4.18;;;5.50;99.90;;;;;;5089155;28;20035;-69
2022/12/31 06:06:50;;;;;;;8.00;4.53;;;5.50;99.90;;;;;;5088364;28;20024;-69
2022/12/31 06:09:17;;;;;;;9.35;5.22;;;5.60;99.90;;;;;;5088477;28;20028;-69
2022/12/31 06:11:43;;;;;;;8.63;5.03;;;5.70;99.90;;;;;;5089085;28;20089;-69
2022/12/31 06:14:10;;;;;;;8.23;4.75;;;5.70;99.90;;;;;;5088290;28;20032;-69
2022/12/31 06:16:35;;;;;;;8.48;5.35;;;5.80;99.90;;;;;;5088096;28;20046;-69
2022/12/31 06:19:01;;;;;;;11.85;6.50;;;5.90;99.90;;;;;;5087969;28;20073;-69
2022/12/31 06:21:27;;;;;;;9.20;6.03;;;5.80;99.90;;;;;;5088755;28;20073;-69
2022/12/31 06:23:53;;;;;;;9.68;4.60;;;5.80;99.90;;;;;;5088029;28;20531;-69
2022/12/31 06:26:18;;;;;;;6.80;4.05;;;5.90;99.90;;;;;;5088360;28;20177;-69
2022/12/31 06:28:44;;;;;;;9.85;5.18;;;5.90;99.90;;;;;;5097760;28;20031;-69
2022/12/31 06:31:13;;;;;;;7.05;3.90;;;5.80;99.90;;;;;;5090982;28;20074;-69
2022/12/31 06:33:39;;;;;;;9.45;4.80;;;5.80;99.90;;;;;;5093782;28;20096;-69
2022/12/31 06:36:07;;;;;;;7.25;4.28;;;6.00;99.90;;;;;;5098147;28;20048;-69
2022/12/31 06:38:35;;;;;;;9.35;4.45;;;6.00;99.90;;;;;;5105164;28;20024;-69
2022/12/31 06:41:09;;;;;;;8.45;4.20;;;6.00;99.90;;;;;;5105101;28;20038;-69
2022/12/31 06:43:35;;;;;;;7.18;3.53;;;6.00;99.90;;;;;;5108771;28;20067;-69
2022/12/31 06:46:02;;;;;;;7.32;4.07;;;5.90;99.90;;;;;;5108318;28;20098;-69
2022/12/31 06:48:28;;;;;;;5.78;3.35;;;5.80;99.90;;;;;;5108790;28;20046;-69
2022/12/31 06:50:54;;;;;;;9.05;3.95;;;5.80;99.90;;;;;;5106895;28;20028;-69
2022/12/31 06:53:19;;;;;;;7.22;3.72;;;5.60;99.90;;;;;;5108001;28;20036;-69
2022/12/31 06:55:47;;;;;;;9.60;3.67;;;5.50;99.90;;;;;;5097701;28;20111;-69
2022/12/31 06:58:14;;;;;;;8.13;4.40;;;5.50;99.90;;;;;;5107312;28;20031;-69
2022/12/31 07:00:49;;;;;;;7.45;4.43;;;5.60;99.90;;;;;;5108726;28;20081;-69
2022/12/31 07:03:28;;;;;;;10.75;4.72;;;5.80;99.90;;;;;;5108480;28;20031;-69
2022/12/31 07:06:09;;;;;;;8.35;5.07;;;5.90;99.90;;;;;;5108298;28;20108;-69
2022/12/31 07:09:08;;;;;;;9.85;5.10;;;5.80;99.90;;;;;;5108132;28;20030;-69
2022/12/31 07:12:01;;;;;;;10.93;4.93;;;5.90;99.90;;;;;;5106850;28;20512;-69
2022/12/31 07:14:48;;;;;;;9.52;4.50;;;5.90;99.90;;;;;;5068328;28;20063;-69
2022/12/31 07:17:32;;;;;;;9.93;4.78;;;6.10;99.90;;;;;;5087267;28;20032;-69
2022/12/31 07:20:16;;;;;;;8.23;3.63;;;6.20;99.90;;;;;;5107382;28;20044;-69
2022/12/31 07:22:42;;;;;;;8.00;4.67;;;6.00;99.90;;;;;;5108585;28;20077;-70
2022/12/31 07:25:13;;;;;;;8.23;4.30;;;6.00;99.90;;;;;;5108060;28;20027;-70
2022/12/31 07:28:04;;;;;;;9.93;4.82;;;5.90;99.90;;;;;;5108219;28;20052;-69
2022/12/31 07:30:30;;;;;;;7.80;4.25;;;5.70;99.90;;;;;;5093156;28;20032;-69
2022/12/31 07:33:01;;;;;;;14.15;7.00;;;5.80;99.90;;;;;;5108209;28;20023;-69
2022/12/31 07:35:48;;;;;;;12.65;6.25;;;5.80;99.90;;;;;;5108390;28;20111;-70
2022/12/31 07:38:16;;;;;;;12.80;6.38;;;5.80;99.90;;;;;;5103539;28;20031;-69
2022/12/31 07:41:22;;;;;;;9.35;5.03;;;5.70;99.90;;;;;;5096944;28;20040;-70
2022/12/31 07:44:06;;;;;;;12.07;4.70;;;5.80;99.90;;;;;;5088931;28;20046;-70
2022/12/31 07:46:50;;;;;;;7.18;3.80;;;5.70;99.90;;;;;;5087063;28;20055;-69
2022/12/31 07:49:17;;;;;;;7.60;5.13;;;5.60;99.90;;;;;;5103568;28;20024;-69
2022/12/31 07:51:42;;;;;;;7.30;4.35;;;5.70;99.90;;;;;;5105052;28;20473;-69
2022/12/31 07:54:08;;;;;;;7.35;3.65;;;5.70;99.90;;;;;;5104720;28;20049;-69
2022/12/31 07:56:34;;;;;;;7.65;4.10;;;5.70;99.90;;;;;;5104488;28;20077;-69
2022/12/31 07:59:12;;;;;;;7.20;4.10;;;5.60;99.90;;;;;;5106863;28;20095;-69
2022/12/31 08:01:51;;;;;;;6.03;3.38;;;5.80;99.90;;;;;;5107902;28;20023;-69
2022/12/31 08:04:25;;;;;;;7.22;3.83;;;5.80;99.90;;;;;;5090290;28;20040;-69
2022/12/31 08:07:00;;;;;;;;;;;5.80;99.90;;;;;;5100514;28;20031;-69
2022/12/31 08:09:35;;;;;;;11.27;5.07;;;5.90;99.90;;;;;;5099865;28;19911;-69
2022/12/31 08:12:01;;;;;;;10.30;3.78;;;5.90;99.90;;;;;;5096913;28;20161;-70
2022/12/31 08:14:28;;;;;;;10.38;5.47;;;5.90;99.90;;;;;;5096865;28;20088;-70
2022/12/31 08:16:55;;;;;;;9.18;5.10;;;5.90;99.90;;;;;;5102390;28;20107;-69
2022/12/31 08:19:24;;;;;;;7.80;4.43;;;6.00;99.90;;;;;;5098744;27;20162;-69
2022/12/31 08:22:06;;;;;;;8.32;4.80;;;6.00;99.90;;;;;;5098729;28;20063;-69
2022/12/31 08:24:53;;;;;;;9.48;5.35;;;6.10;99.90;;;;;;5098953;28;20108;-69
2022/12/31 08:27:34;;;;;;;10.00;5.30;;;6.20;99.90;;;;;;5093553;28;20052;-69
2022/12/31 08:30:13;;;;;;;9.95;5.15;;;6.20;99.90;;;;;;5098840;28;21117;-69
2022/12/31 08:33:05;;;;;;;10.32;5.57;;;6.20;99.90;;;;;;5100247;28;20044;-69
2022/12/31 08:35:39;;;;;;;7.28;4.13;;;6.30;99.90;;;;;;5093036;28;20031;-69
2022/12/31 08:38:27;;;;;;;9.68;4.57;;;6.30;99.90;;;;;;5103353;28;20038;-69
2022/12/31 08:40:56;;;;;;;12.00;5.55;;;6.20;99.90;;;;;;5094885;28;20134;-70
2022/12/31 08:43:54;;;;;;;11.43;4.93;;;6.20;99.90;;;;;;5103741;28;20044;-69
2022/12/31 08:46:31;;;;;;;10.40;5.28;;;6.20;99.90;;;;;;5104489;28;20028;-70
2022/12/31 08:48:57;;;;;;;8.50;5.07;;;6.20;99.90;;;;;;5099306;28;20079;-69
2022/12/31 08:51:25;;;;;;;9.07;4.97;;;6.20;99.90;;;;;;5106803;28;20102;-69
2022/12/31 08:53:52;;;;;;;12.50;6.10;;;6.20;99.90;;;;;;5106723;28;20031;-69
2022/12/31 08:56:27;;;;;;;12.35;5.00;;;6.20;99.90;;;;;;5107048;28;20054;-69
2022/12/31 08:59:17;;;;;;;8.13;4.95;;;6.20;99.90;;;;;;5100897;28;20024;-69
2022/12/31 09:02:16;;;;;;;8.98;4.60;;;6.30;99.90;;;;;;5105058;28;20023;-69
2022/12/31 09:04:49;;;;;;;10.25;5.97;;;6.30;99.90;;;;;;5097528;28;20481;-69
2022/12/31 09:07:20;;;;;;;9.75;5.82;;;6.30;99.90;;;;;;5100823;28;20032;-69
2022/12/31 09:10:16;;;;;;;13.23;5.28;;;6.30;99.90;;;;;;5106358;28;20058;-69
2022/12/31 09:13:00;;;;;;;13.40;6.85;;;6.20;99.90;;;;;;5096207;28;20034;-70
2022/12/31 09:15:39;;;;;;;11.10;6.57;;;6.00;99.90;;;;;;5106035;28;20020;-69
2022/12/31 09:18:08;;;;;;;11.18;6.80;;;6.00;99.90;;;;;;5102458;28;20063;-69
2022/12/31 09:20:34;;;;;;;13.60;7.63;;;6.00;99.90;;;;;;5105129;28;20054;-69
2022/12/31 09:23:01;;;;;;;10.35;6.72;;;6.00;99.90;;;;;;5098715;28;20052;-69
2022/12/31 09:25:27;;;;;;;12.80;7.13;;;6.10;99.90;;;;;;5102970;28;20024;-70
2022/12/31 09:28:05;;;;;;;12.38;6.70;;;5.90;99.90;;;;;;5105051;28;20055;-70
2022/12/31 09:30:54;;;;;;;9.18;5.60;;;6.00;99.90;;;;;;5093471;28;20450;-70
2022/12/31 09:33:33;;;;;;;9.93;5.40;;;6.00;99.90;;;;;;5089724;28;20112;-70
2022/12/31 09:36:07;;;;;;;9.27;5.28;;;6.10;99.90;;;;;;5096783;28;20115;-70
2022/12/31 09:38:42;;;;;;;11.05;5.03;;;6.20;99.90;;;;;;5089243;28;20108;-70
2022/12/31 09:41:29;;;;;;;8.70;5.22;;;6.20;99.90;;;;;;5093244;28;20042;-70
2022/12/31 09:43:57;;;;;;;12.30;6.88;;;6.10;99.90;;;;;;5087800;28;20498;-70
2022/12/31 09:47:01;;;;;;;10.50;5.82;;;6.20;99.90;;;;;;5102423;28;20023;-70
2022/12/31 09:49:48;;;;;;;11.98;7.10;;;6.10;99.90;;;;;;5059103;28;20038;-70
2022/12/31 09:52:40;;;;;;;11.57;6.70;;;6.20;99.90;;;;;;5062412;28;20068;-70
2022/12/31 09:55:06;;;;;;;16.65;6.68;;;6.20;99.90;;;;;;5091020;28;20047;-70
2022/12/31 09:58:13;;;;;;;10.60;6.72;;;6.20;99.90;;;;;;5100435;28;20023;-70
2022/12/31 10:00:49;;;;;;;10.85;5.63;;;6.20;99.90;;;;;;5075206;28;20047;-70
2022/12/31 10:03:33;;;;;;;9.88;6.30;;;6.20;99.90;;;;;;5104626;27;20126;-70
2022/12/31 10:06:21;;;;;;;12.50;6.88;;;6.20;99.90;;;;;;5105531;28;20062;-69
2022/12/31 10:09:11;;;;;;;9.63;5.85;;;6.30;99.90;;;;;;5105177;28;20032;-70
2022/12/31 10:12:17;;;;;;;8.52;5.15;;;6.40;99.90;;;;;;5099527;28;20028;-70
2022/12/31 10:14:42;;;;;;;9.85;5.72;;;6.40;99.90;;;;;;5095247;28;20100;-70
2022/12/31 10:17:35;;;;;;;11.63;6.53;;;6.60;99.90;;;;;;5100139;28;20406;-70
2022/12/31 10:20:29;;;;;;;8.93;5.70;;;6.60;99.90;;;;;;5092197;28;20032;-70
2022/12/31 10:23:14;;;;;;;9.23;4.88;;;6.70;99.90;;;;;;5101441;28;20374;-70
2022/12/31 10:25:55;;;;;;;13.18;5.93;;;6.70;99.90;;;;;;5099485;28;20027;-70
2022/12/31 10:29:02;;;;;;;10.98;5.63;;;6.70;99.90;;;;;;5100518;28;20043;-70
2022/12/31 10:31:37;;;;;;;10.00;5.70;;;6.70;99.90;;;;;;5074269;28;20036;-70
2022/12/31 10:34:25;;;;;;;12.48;6.22;;;6.80;99.90;;;;;;5105235;28;20020;-70
2022/12/31 10:36:53;;;;;;;12.88;7.22;;;6.90;99.90;;;;;;5104319;28;20027;-70
2022/12/31 10:39:21;;;;;;;10.45;6.43;;;6.90;99.90;;;;;;5087523;28;20048;-70
2022/12/31 10:42:29;;;;;;;11.52;6.60;;;6.90;99.90;;;;;;5103818;28;20023;-70
2022/12/31 10:45:16;;;;;;;15.60;6.78;;;6.90;99.90;;;;;;5103925;28;20067;-70
2022/12/31 10:47:50;;;;;;;10.65;6.55;;;6.90;99.90;;;;;;5104834;28;20097;-70
2022/12/31 10:50:19;;;;;;;12.73;7.03;;;6.80;99.90;;;;;;5105265;28;20027;-70
2022/12/31 10:53:09;;;;;;;14.88;8.80;;;6.80;99.90;;;;;;5101905;28;20032;-70
2022/12/31 10:56:08;;;;;;;12.45;7.88;;;6.90;99.90;;;;;;5097431;28;20039;-70
2022/12/31 10:58:39;;;;;;;11.75;7.10;;;7.00;99.90;;;;;;5105027;28;20374;-70
2022/12/31 11:01:33;;;;;;;9.10;5.88;;;7.10;99.90;;;;;;5105021;28;20031;-70
2022/12/31 11:04:17;;;;;;;14.55;7.80;;;7.20;99.90;;;;;;5104999;28;20504;-70
2022/12/31 11:06:55;;;;;;;13.02;7.82;;;7.40;99.90;;;;;;5105432;28;20473;-70
2022/12/31 11:09:33;;;;;;;15.13;7.88;;;7.50;99.90;;;;;;5105393;28;20020;-70
2022/12/31 11:12:06;;;;;;;14.73;9.45;;;7.60;99.90;;;;;;5105125;28;20027;-70
2022/12/31 11:14:57;;;;;;;14.02;9.40;;;7.70;99.90;;;;;;5098896;28;20555;-70
2022/12/31 11:17:25;;;;;;;16.90;9.13;;;7.80;99.90;;;;;;5098392;28;20122;-70
2022/12/31 11:20:22;;;;;;;18.27;10.23;;;7.90;99.90;;;;;;5104698;28;20031;-70
2022/12/31 11:22:54;;;;;;;12.55;8.20;;;8.00;99.90;;;;;;5099110;28;20104;-70
2022/12/31 11:25:27;;;;;;;11.93;8.27;;;8.00;99.90;;;;;;5103237;28;20049;-70
2022/12/31 11:28:26;;;;;;;11.82;7.78;;;8.10;99.90;;;;;;5092213;28;20063;-70
2022/12/31 11:31:01;;;;;;;15.68;8.88;;;8.00;99.90;;;;;;5087590;28;20039;-70
2022/12/31 11:33:45;;;;;;;16.05;7.70;;;8.00;99.90;;;;;;5096139;28;20047;-72
2022/12/31 11:36:29;;;;;;;12.77;7.88;;;8.10;99.90;;;;;;5109507;28;20016;-70
2022/12/31 11:39:24;;;;;;;13.05;7.88;;;8.20;99.90;;;;;;5097589;28;20023;-71
2022/12/31 11:41:54;;;;;;;;;;;8.40;99.90;;;;;;5108966;28;20019;-70
2022/12/31 11:44:44;;;;;;;12.45;7.47;;;8.50;99.90;;;;;;5109841;28;19907;-69
2022/12/31 11:47:24;;;;;;;14.32;8.30;;;8.50;99.90;;;;;;5101170;28;20190;-70
2022/12/31 11:50:12;;;;;;;12.63;6.95;;;8.50;99.90;;;;;;5099013;28;20113;-70
2022/12/31 11:53:05;;;;;;;13.40;7.15;;;8.40;99.90;;;;;;5105731;28;20077;-70
2022/12/31 11:55:48;;;;;;;11.25;6.03;;;8.40;99.90;;;;;;5107692;28;20134;-70
2022/12/31 11:58:18;;;;;;;11.38;6.45;;;9.60;99.90;;;;;;5107922;28;20406;-71
2022/12/31 12:00:54;;;;;;;12.02;7.70;;;9.60;99.90;;;;;;5106076;28;20111;-70
2022/12/31 12:03:20;;;;;;;11.88;6.90;;;9.60;99.90;;;;;;5109629;28;20043;-69
2022/12/31 12:05:46;;;;;;;31.05;24.17;;;9.30;99.90;;;;;;5105944;28;20043;-70
2022/12/31 12:08:12;;;;;;;18.40;8.77;;;9.00;99.90;;;;;;5111282;28;20062;-70
2022/12/31 12:10:41;;;;;;;13.98;7.25;;;8.80;99.90;;;;;;5104182;28;20897;-70
2022/12/31 12:13:26;;;;;;;10.82;7.47;;;8.60;99.90;;;;;;5105736;28;20123;-70
2022/12/31 12:16:01;;;;;;;15.02;7.93;;;8.60;99.90;;;;;;5100433;27;20024;-70
2022/12/31 12:18:35;;;;;;;12.82;7.32;;;8.60;99.90;;;;;;5089843;28;20020;-70
2022/12/31 12:21:12;;;;;;;12.43;7.72;;;8.70;99.90;;;;;;5099260;28;20032;-71
2022/12/31 12:23:38;;;;;;;11.48;8.50;;;8.80;99.90;;;;;;5093188;28;20039;-71
2022/12/31 12:26:05;;;;;;;11.10;7.68;;;9.00;99.90;;;;;;5095789;28;20082;-70
2022/12/31 12:28:43;;;;;;;12.05;7.35;;;9.00;99.90;;;;;;5103989;28;20040;-70
2022/12/31 12:31:20;;;;;;;14.05;7.45;;;9.10;99.90;;;;;;5100940;28;20560;-70
2022/12/31 12:33:48;;;;;;;12.52;7.35;;;9.10;99.90;;;;;;5101221;28;20023;-71
2022/12/31 12:36:15;;;;;;;10.50;7.00;;;9.10;99.90;;;;;;5103200;28;20047;-71
2022/12/31 12:38:42;;;;;;;11.45;7.20;;;9.10;99.90;;;;;;5095631;28;20040;-72
2022/12/31 12:41:26;;;;;;;11.82;7.10;;;9.10;99.90;;;;;;5093558;28;20032;-71
2022/12/31 12:44:07;;;;;;;12.68;7.70;;;9.20;99.90;;;;;;5104539;28;21760;-72
2022/12/31 12:46:42;;;;;;;12.88;7.45;;;9.20;99.90;;;;;;5098873;28;20027;-73
2022/12/31 12:49:17;;;;;;;;;;;9.10;99.90;;;;;;5108226;28;20047;-72
2022/12/31 12:51:50;;;;;;;11.32;6.63;;;9.10;99.90;;;;;;5097689;28;20306;-71
2022/12/31 12:54:28;;;;;;;10.90;7.25;;;9.00;99.90;;;;;;5093872;28;20493;-74
2022/12/31 12:57:21;;;;;;;12.02;7.82;;;8.90;99.90;;;;;;5100099;28;20397;-72
2022/12/31 13:00:03;;;;;;;15.73;8.48;;;9.00;99.90;;;;;;5103773;28;20558;-72
2022/12/31 13:02:52;;;;;;;12.45;7.57;;;8.90;99.90;;;;;;5093320;28;20032;-71
2022/12/31 13:05:46;;;;;;;18.30;7.70;;;8.90;99.90;;;;;;5107197;28;20108;-71
2022/12/31 13:08:17;;;;;;;12.55;7.53;;;8.90;99.90;;;;;;5103627;28;20032;-72
2022/12/31 13:11:10;;;;;;;13.13;7.78;;;8.90;99.90;;;;;;5097001;28;20035;-72
2022/12/31 13:13:51;;;;;;;15.93;8.25;;;8.90;99.90;;;;;;5106828;28;20038;-71
2022/12/31 13:16:23;;;;;;;15.07;7.82;;;9.00;99.90;;;;;;5093183;28;20028;-71
2022/12/31 13:19:17;;;;;;;12.35;7.50;;;9.00;99.90;;;;;;5093913;28;20468;-71
2022/12/31 13:22:14;;;;;;;11.70;7.43;;;9.10;99.90;;;;;;5103438;28;20045;-72
2022/12/31 13:25:17;;;;;;;10.75;7.15;;;9.10;99.90;;;;;;5093506;28;20044;-72
2022/12/31 13:27:46;;;;;;;11.85;6.80;;;9.30;99.90;;;;;;5089218;28;20045;-71
2022/12/31 13:30:35;;;;;;;11.20;8.00;;;9.30;99.90;;;;;;5096275;28;20102;-71
2022/12/31 13:33:24;;;;;;;16.58;8.05;;;9.40;99.90;;;;;;5089267;28;20574;-72
2022/12/31 13:35:57;;;;;;;11.25;7.05;;;9.40;99.90;;;;;;5095034;28;20100;-71